createdAt,value
2022-11-03T00:01:46.740Z,12.60
2022-11-03T00:04:17.803Z,10.87
2022-11-03T00:06:45.331Z,13.77
2022-11-03T00:09:13.080Z,11.27
2022-11-03T00:11:40.701Z,13.63
2022-11-03T00:14:07.469Z,9.07
2022-11-03T00:16:34.145Z,12.07
2022-11-03T00:19:01.031Z,10.30
2022-11-03T00:21:27.632Z,11.67
2022-11-03T00:23:54.350Z,9.53
2022-11-03T00:26:22.238Z,10.33
2022-11-03T00:28:53.247Z,10.07
2022-11-03T00:31:27.891Z,8.53
2022-11-03T00:33:54.747Z,8.52
2022-11-03T00:36:32.062Z,8.90
2022-11-03T00:38:58.798Z,9.37
2022-11-03T00:41:25.738Z,8.67
2022-11-03T00:43:52.645Z,8.57
2022-11-03T00:46:20.017Z,8.77
2022-11-03T00:48:46.611Z,9.20
2022-11-03T00:51:14.369Z,10.23
2022-11-03T00:53:48.241Z,9.83
2022-11-03T00:56:16.612Z,13.93
2022-11-03T00:58:43.396Z,15.37
2022-11-03T01:01:13.794Z,11.17
2022-11-03T01:03:41.385Z,12.40
2022-11-03T01:06:27.828Z,34.40
2022-11-03T01:08:54.747Z,12.17
2022-11-03T01:11:42.072Z,12.93
2022-11-03T01:14:59.544Z,25.30
2022-11-03T01:17:27.543Z,10.27
2022-11-03T01:19:54.385Z,10.23
2022-11-03T01:22:21.444Z,8.43
2022-11-03T01:24:48.027Z,8.77
2022-11-03T01:27:16.211Z,10.63
2022-11-03T01:29:42.954Z,8.40
2022-11-03T01:32:10.108Z,9.30
2022-11-03T01:34:36.895Z,11.40
2022-11-03T01:37:03.641Z,8.73
2022-11-03T01:39:30.221Z,9.17
2022-11-03T01:41:56.885Z,9.67
2022-11-03T01:44:24.291Z,18.07
2022-11-03T01:46:54.954Z,9.73
2022-11-03T01:49:34.020Z,6.70
2022-11-03T01:52:08.152Z,6.63
2022-11-03T01:54:34.766Z,5.87
2022-11-03T01:57:01.329Z,5.77
2022-11-03T01:59:27.978Z,6.53
2022-11-03T02:01:54.885Z,7.03
2022-11-03T02:04:27.049Z,8.80
2022-11-03T02:07:14.395Z,6.97
2022-11-03T02:09:41.114Z,6.90
2022-11-03T02:12:08.003Z,7.97
2022-11-03T02:14:40.898Z,7.37
2022-11-03T02:17:09.972Z,7.07
2022-11-03T02:19:41.051Z,6.60
2022-11-03T02:22:17.839Z,8.23
2022-11-03T02:24:53.964Z,8.40
2022-11-03T02:27:21.072Z,6.27
2022-11-03T02:29:47.677Z,5.57
2022-11-03T02:32:22.878Z,5.97
2022-11-03T02:34:54.418Z,7.67
2022-11-03T02:37:26.154Z,6.97
2022-11-03T02:40:05.854Z,8.87
2022-11-03T02:42:32.980Z,10.00
2022-11-03T02:45:00.816Z,9.40
2022-11-03T02:47:27.459Z,7.47
2022-11-03T02:52:41.180Z,7.47
2022-11-03T02:55:15.337Z,8.40
2022-11-03T02:58:10.106Z,7.97
2022-11-03T03:01:00.944Z,9.33
2022-11-03T03:03:35.917Z,8.60
2022-11-03T03:08:29.513Z,7.77
2022-11-03T03:10:56.096Z,7.43
2022-11-03T03:13:22.824Z,12.10
2022-11-03T03:15:56.954Z,12.97
2022-11-03T03:18:27.692Z,9.37
2022-11-03T03:21:01.455Z,11.03
2022-11-03T03:23:31.850Z,8.50
2022-11-03T03:26:12.410Z,8.73
2022-11-03T03:28:43.734Z,7.50
2022-11-03T03:31:11.817Z,7.03
2022-11-03T03:33:40.731Z,7.47
2022-11-03T03:36:12.141Z,10.10
2022-11-03T03:38:44.270Z,8.60
2022-11-03T03:41:12.172Z,8.27
2022-11-03T03:43:38.765Z,6.70
2022-11-03T03:46:08.174Z,7.40
2022-11-03T03:48:34.780Z,6.50
2022-11-03T03:51:01.802Z,9.50
2022-11-03T03:53:29.652Z,7.37
2022-11-03T03:55:56.326Z,7.23
2022-11-03T03:58:23.102Z,12.23
2022-11-03T04:00:49.841Z,7.80
2022-11-03T04:03:21.185Z,6.60
2022-11-03T04:05:48.048Z,13.23
2022-11-03T04:08:15.547Z,6.83
2022-11-03T04:11:02.324Z,7.40
2022-11-03T04:13:47.618Z,6.50
2022-11-03T04:16:32.740Z,6.60
2022-11-03T04:19:18.213Z,7.20
2022-11-03T04:24:30.286Z,8.93
2022-11-03T04:27:02.861Z,8.37
2022-11-03T04:29:29.736Z,7.90
2022-11-03T04:31:56.714Z,8.73
2022-11-03T04:34:24.206Z,8.57
2022-11-03T04:36:50.786Z,8.60
2022-11-03T04:39:19.890Z,7.50
2022-11-03T04:41:46.667Z,6.27
2022-11-03T04:44:16.844Z,6.60
2022-11-03T04:46:44.070Z,7.60
2022-11-03T04:49:20.791Z,9.10
2022-11-03T04:51:47.422Z,6.60
2022-11-03T04:54:15.942Z,6.97
2022-11-03T04:56:42.826Z,8.23
2022-11-03T04:59:11.219Z,4.60
2022-11-03T05:01:38.058Z,4.20
2022-11-03T05:04:08.606Z,4.33
2022-11-03T05:06:35.233Z,6.80
2022-11-03T05:09:03.212Z,8.40
2022-11-03T05:11:40.238Z,8.47
2022-11-03T05:14:20.633Z,6.70
2022-11-03T05:16:48.159Z,6.83
2022-11-03T05:19:26.533Z,6.47
2022-11-03T05:21:53.418Z,7.60
2022-11-03T05:24:21.296Z,7.07
2022-11-03T05:26:48.314Z,7.03
2022-11-03T05:29:21.750Z,6.50
2022-11-03T05:31:48.674Z,7.37
2022-11-03T05:34:33.091Z,6.87
2022-11-03T05:37:29.602Z,7.03
2022-11-03T05:40:05.090Z,6.73
2022-11-03T05:42:36.686Z,5.90
2022-11-03T05:45:24.611Z,8.20
2022-11-03T05:47:53.864Z,7.17
2022-11-03T05:50:22.171Z,7.60
2022-11-03T05:52:49.902Z,8.50
2022-11-03T05:55:34.979Z,7.87
2022-11-03T05:58:27.772Z,7.60
2022-11-03T06:00:54.459Z,8.10
2022-11-03T06:03:27.786Z,6.13
2022-11-03T06:05:54.348Z,6.27
2022-11-03T06:10:51.212Z,6.87
2022-11-03T06:13:25.165Z,6.90
2022-11-03T06:15:56.824Z,6.27
2022-11-03T06:18:24.601Z,8.47
2022-11-03T06:20:58.976Z,6.93
2022-11-03T06:23:25.567Z,7.35
2022-11-03T06:25:53.125Z,9.77
2022-11-03T06:28:29.145Z,9.83
2022-11-03T06:30:55.753Z,8.27
2022-11-03T06:33:27.183Z,7.77
2022-11-03T06:35:55.841Z,7.43
2022-11-03T06:38:27.622Z,7.00
2022-11-03T06:40:54.283Z,6.77
2022-11-03T06:43:22.161Z,6.90
2022-11-03T06:45:53.749Z,13.37
2022-11-03T06:48:26.287Z,6.83
2022-11-03T06:50:53.691Z,6.77
2022-11-03T06:53:31.718Z,6.23
2022-11-03T06:55:58.409Z,8.07
2022-11-03T06:58:25.335Z,7.27
2022-11-03T07:00:52.422Z,5.93
2022-11-03T07:03:33.639Z,6.87
2022-11-03T07:06:27.409Z,8.03
2022-11-03T07:09:01.213Z,8.33
2022-11-03T07:11:41.548Z,7.93
2022-11-03T07:14:13.017Z,8.80
2022-11-03T07:16:55.958Z,9.03
2022-11-03T07:19:25.208Z,6.93
2022-11-03T07:21:54.047Z,6.67
2022-11-03T07:24:42.181Z,10.40
2022-11-03T07:27:28.279Z,6.13
2022-11-03T07:29:58.507Z,10.17
2022-11-03T07:32:29.403Z,8.90
2022-11-03T07:35:25.772Z,6.30
2022-11-03T07:37:52.531Z,6.37
2022-11-03T07:40:21.883Z,6.03
2022-11-03T07:42:48.505Z,19.20
2022-11-03T07:45:40.521Z,10.57
2022-11-03T07:48:20.721Z,16.10
2022-11-03T07:50:48.552Z,13.48
2022-11-03T07:53:45.671Z,11.02
2022-11-03T07:56:19.493Z,5.18
2022-11-03T07:58:46.186Z,5.00
2022-11-03T08:01:26.601Z,4.30
2022-11-03T08:03:54.092Z,6.55
2022-11-03T08:06:20.671Z,7.20
2022-11-03T08:08:47.470Z,7.30
2022-11-03T08:13:45.715Z,2.80
2022-11-03T08:16:12.289Z,4.10
2022-11-03T08:18:39.060Z,3.92
2022-11-03T08:21:05.825Z,4.13
2022-11-03T08:23:32.853Z,4.43
2022-11-03T08:26:00.149Z,4.45
2022-11-03T08:28:26.875Z,6.75
2022-11-03T08:30:53.497Z,5.97
2022-11-03T08:33:20.216Z,4.00
2022-11-03T08:35:48.168Z,3.42
2022-11-03T08:38:14.779Z,3.05
2022-11-03T08:40:41.393Z,2.58
2022-11-03T08:43:08.058Z,2.45
2022-11-03T08:45:34.656Z,2.92
2022-11-03T08:48:01.416Z,2.75
2022-11-03T08:50:28.046Z,2.90
2022-11-03T08:52:54.708Z,2.55
2022-11-03T08:55:21.395Z,3.28
2022-11-03T08:57:48.089Z,3.40
2022-11-03T09:00:27.877Z,3.60
2022-11-03T09:02:54.466Z,3.42
2022-11-03T09:05:21.141Z,2.78
2022-11-03T09:10:37.013Z,3.03
2022-11-03T09:13:06.701Z,3.30
2022-11-03T09:15:33.476Z,3.10
2022-11-03T09:18:00.108Z,3.83
2022-11-03T09:20:27.090Z,3.67
2022-11-03T09:22:53.782Z,3.72
2022-11-03T09:25:20.362Z,3.80
2022-11-03T09:27:47.209Z,3.50
2022-11-03T09:30:14.604Z,3.50
2022-11-03T09:32:41.417Z,3.35
2022-11-03T09:35:09.764Z,4.60
2022-11-03T09:37:36.909Z,4.53
2022-11-03T09:40:04.293Z,3.92
2022-11-03T09:42:34.369Z,3.47
2022-11-03T09:45:01.351Z,3.33
2022-11-03T09:47:31.945Z,3.53
2022-11-03T09:49:58.527Z,3.22
2022-11-03T09:52:25.224Z,3.80
2022-11-03T09:54:53.064Z,3.90
2022-11-03T09:57:19.877Z,3.60
2022-11-03T09:59:48.392Z,3.95
2022-11-03T10:02:31.535Z,3.90
2022-11-03T10:05:00.358Z,3.80
2022-11-03T10:07:27.619Z,3.80
2022-11-03T10:09:54.343Z,3.25
2022-11-03T10:12:21.951Z,3.65
2022-11-03T10:14:48.540Z,3.33
2022-11-03T10:17:20.117Z,2.03
2022-11-03T10:19:51.883Z,2.17
2022-11-03T10:22:20.033Z,1.83
2022-11-03T10:24:46.779Z,2.28
2022-11-03T10:27:25.409Z,3.15
2022-11-03T10:30:07.908Z,5.50
2022-11-03T10:32:35.021Z,8.68
2022-11-03T10:35:24.528Z,15.77
2022-11-03T10:37:51.129Z,11.88
2022-11-03T10:40:51.979Z,4.53
2022-11-03T10:43:18.770Z,5.45
2022-11-03T10:45:45.511Z,13.40
2022-11-03T10:48:12.167Z,6.53
2022-11-03T10:50:42.329Z,4.47
2022-11-03T10:53:17.617Z,2.00
2022-11-03T10:55:44.512Z,1.67
2022-11-03T10:58:11.158Z,1.90
2022-11-03T11:00:38.030Z,29.88
2022-11-03T11:03:06.036Z,14.55
2022-11-03T11:05:33.180Z,7.05
2022-11-03T11:07:59.906Z,7.55
2022-11-03T11:10:27.931Z,6.47
2022-11-03T11:13:13.742Z,4.00
2022-11-03T11:15:47.146Z,4.45
2022-11-03T11:18:46.074Z,4.35
2022-11-03T11:21:15.624Z,3.05
2022-11-03T11:23:42.254Z,2.20
2022-11-03T11:26:08.887Z,1.70
2022-11-03T11:29:11.153Z,2.00
2022-11-03T11:31:46.537Z,2.28
2022-11-03T11:34:19.854Z,1.50
2022-11-03T11:36:47.526Z,1.42
2022-11-03T11:39:20.259Z,1.40
2022-11-03T11:42:09.908Z,2.05
2022-11-03T11:44:39.677Z,1.70
2022-11-03T11:47:26.349Z,2.03
2022-11-03T11:50:06.925Z,1.60
2022-11-03T11:52:47.103Z,1.90
2022-11-03T11:55:46.042Z,1.75
2022-11-03T11:58:32.344Z,1.85
2022-11-03T12:01:00.777Z,1.83
2022-11-03T12:03:46.761Z,1.77
2022-11-03T12:06:13.569Z,1.90
2022-11-03T12:08:40.267Z,1.90
2022-11-03T12:11:07.709Z,2.10
2022-11-03T12:13:42.912Z,1.90
2022-11-03T12:16:10.019Z,2.10
2022-11-03T12:18:44.750Z,1.60
2022-11-03T12:21:14.721Z,1.90
2022-11-03T12:23:45.352Z,1.75
2022-11-03T12:26:18.853Z,2.47
2022-11-03T12:28:45.555Z,2.17
2022-11-03T12:31:12.694Z,1.70
2022-11-03T12:33:39.624Z,1.85
2022-11-03T12:36:06.628Z,2.20
2022-11-03T12:38:33.392Z,2.13
2022-11-03T12:41:19.961Z,1.92
2022-11-03T12:43:47.287Z,2.00
2022-11-03T12:46:14.215Z,1.75
2022-11-03T12:48:44.226Z,2.05
2022-11-03T12:51:12.455Z,1.67
2022-11-03T12:53:39.771Z,1.98
2022-11-03T12:56:06.812Z,1.70
2022-11-03T12:58:33.534Z,2.05
2022-11-03T13:01:01.804Z,2.00
2022-11-03T13:03:29.171Z,1.50
2022-11-03T13:05:56.103Z,1.65
2022-11-03T13:08:38.095Z,1.80
2022-11-03T13:11:04.982Z,1.88
2022-11-03T13:13:32.795Z,1.45
2022-11-03T13:15:59.574Z,1.80
2022-11-03T13:18:26.365Z,1.80
2022-11-03T13:20:52.959Z,2.50
2022-11-03T13:23:22.980Z,1.75
2022-11-03T13:25:49.949Z,2.22
2022-11-03T13:28:16.591Z,1.83
2022-11-03T13:30:43.347Z,1.98
2022-11-03T13:33:10.448Z,1.80
2022-11-03T13:35:37.611Z,2.15
2022-11-03T13:38:04.264Z,2.22
2022-11-03T13:43:17.583Z,2.00
2022-11-03T13:45:44.358Z,2.30
2022-11-03T13:50:57.820Z,2.15
2022-11-03T13:56:16.843Z,2.38
2022-11-03T14:01:36.666Z,1.88
2022-11-03T14:06:50.308Z,2.03
2022-11-03T14:09:17.146Z,2.05
2022-11-03T14:12:02.319Z,2.20
2022-11-03T14:14:29.068Z,2.45
2022-11-03T14:16:55.859Z,2.83
2022-11-03T14:19:28.772Z,2.65
2022-11-03T14:22:00.389Z,2.55
2022-11-03T14:24:27.058Z,2.53
2022-11-03T14:26:53.847Z,2.47
2022-11-03T14:29:20.495Z,2.60
2022-11-03T14:31:47.256Z,2.65
2022-11-03T14:34:13.906Z,3.00
2022-11-03T14:36:40.572Z,3.13
2022-11-03T14:39:07.396Z,3.20
2022-11-03T14:41:52.573Z,2.90
2022-11-03T14:44:19.536Z,3.33
2022-11-03T14:46:46.352Z,2.95
2022-11-03T14:49:12.945Z,3.33
2022-11-03T14:51:39.675Z,3.30
2022-11-03T14:54:06.277Z,3.60
2022-11-03T14:56:32.913Z,3.65
2022-11-03T14:58:59.655Z,3.70
2022-11-03T15:01:26.437Z,3.72
2022-11-03T15:03:53.126Z,3.72
2022-11-03T15:06:19.769Z,3.75
2022-11-03T15:08:48.877Z,3.42
2022-11-03T15:11:17.391Z,3.75
2022-11-03T15:13:47.153Z,3.55
2022-11-03T15:16:15.177Z,3.95
2022-11-03T15:18:44.106Z,3.63
2022-11-03T15:21:11.575Z,3.90
2022-11-03T15:26:24.799Z,3.75
2022-11-03T15:28:51.568Z,4.07
2022-11-03T15:31:18.167Z,3.85
2022-11-03T15:33:44.736Z,3.75
2022-11-03T15:36:11.915Z,4.20
2022-11-03T15:38:38.634Z,4.20
2022-11-03T15:41:17.323Z,4.68
2022-11-03T15:43:44.608Z,3.88
2022-11-03T15:46:11.242Z,4.00
2022-11-03T15:48:38.211Z,4.40
2022-11-03T15:51:05.232Z,4.55
2022-11-03T15:53:31.867Z,4.30
2022-11-03T15:55:58.554Z,4.32
2022-11-03T15:58:25.208Z,4.20
2022-11-03T16:00:51.904Z,4.32
2022-11-03T16:03:18.717Z,4.30
2022-11-03T16:05:45.329Z,3.78
2022-11-03T16:08:12.324Z,4.13
2022-11-03T16:10:41.554Z,5.15
2022-11-03T16:13:10.817Z,4.57
2022-11-03T16:15:37.443Z,4.63
2022-11-03T16:18:04.055Z,4.20
2022-11-03T16:20:30.812Z,4.68
2022-11-03T16:22:57.525Z,4.55
2022-11-03T16:25:24.250Z,4.57
2022-11-03T16:27:50.979Z,5.80
2022-11-03T16:30:17.623Z,5.90
2022-11-03T16:32:44.301Z,5.20
2022-11-03T16:35:11.148Z,5.47
2022-11-03T16:37:37.783Z,5.32
2022-11-03T16:40:05.528Z,5.22
2022-11-03T16:42:38.524Z,5.57
2022-11-03T16:45:15.171Z,5.88
2022-11-03T16:47:41.770Z,5.47
2022-11-03T16:50:08.586Z,5.65
2022-11-03T16:52:35.281Z,4.85
2022-11-03T16:55:01.897Z,4.68
2022-11-03T16:57:28.707Z,4.60
2022-11-03T16:59:55.924Z,4.80
2022-11-03T17:02:22.648Z,4.55
2022-11-03T17:04:49.567Z,4.38
2022-11-03T17:07:16.158Z,4.22
2022-11-03T17:09:42.740Z,4.45
2022-11-03T17:12:09.314Z,4.30
2022-11-03T17:14:36.514Z,4.55
2022-11-03T17:17:03.160Z,4.55
2022-11-03T17:19:29.759Z,5.43
2022-11-03T17:21:56.533Z,4.38
2022-11-03T17:24:23.089Z,4.70
2022-11-03T17:27:15.890Z,4.80
2022-11-03T17:29:44.885Z,4.90
2022-11-03T17:32:13.839Z,4.90
2022-11-03T17:34:40.635Z,5.45
2022-11-03T17:37:07.382Z,5.80
2022-11-03T17:39:34.455Z,5.43
2022-11-03T17:42:22.880Z,5.00
2022-11-03T17:44:50.161Z,6.10
2022-11-03T17:47:17.700Z,5.13
2022-11-03T17:49:44.561Z,5.50
2022-11-03T17:52:16.673Z,5.22
2022-11-03T17:54:43.291Z,5.10
2022-11-03T17:57:15.463Z,4.97
2022-11-03T17:59:42.252Z,5.25
2022-11-03T18:02:14.097Z,5.20
2022-11-03T18:04:41.003Z,5.20
2022-11-03T18:07:21.604Z,4.60
2022-11-03T18:09:48.518Z,5.13
2022-11-03T18:12:33.739Z,5.10
2022-11-03T18:15:08.567Z,5.03
2022-11-03T18:17:35.580Z,5.18
2022-11-03T18:20:02.273Z,4.68
2022-11-03T18:22:28.866Z,4.30
2022-11-03T18:24:55.517Z,4.93
2022-11-03T18:27:25.242Z,4.97
2022-11-03T18:29:52.232Z,5.18
2022-11-03T18:32:19.372Z,5.60
2022-11-03T18:34:45.989Z,5.00
2022-11-03T18:37:12.686Z,4.95
2022-11-03T18:39:39.461Z,4.75
2022-11-03T18:42:13.615Z,4.95
2022-11-03T18:44:41.621Z,5.00
2022-11-03T18:47:08.287Z,4.30
2022-11-03T18:49:34.916Z,4.78
2022-11-03T18:52:07.325Z,5.10
2022-11-03T18:54:34.594Z,4.93
2022-11-03T18:57:01.322Z,4.60
2022-11-03T18:59:31.023Z,4.60
2022-11-03T19:01:58.132Z,4.55
2022-11-03T19:04:24.839Z,4.95
2022-11-03T19:06:51.794Z,4.70
2022-11-03T19:09:26.208Z,4.50
2022-11-03T19:11:54.598Z,4.80
2022-11-03T19:14:27.071Z,5.03
2022-11-03T19:17:24.304Z,4.63
2022-11-03T19:19:41.307Z,4.68
2022-11-03T19:22:15.890Z,4.55
2022-11-03T19:24:43.054Z,5.15
2022-11-03T19:27:18.472Z,5.43
2022-11-03T19:29:45.171Z,5.80
2022-11-03T19:32:20.834Z,5.05
2022-11-03T19:34:56.354Z,5.45
2022-11-03T19:37:22.975Z,5.07
2022-11-03T19:39:49.604Z,5.20
2022-11-03T19:42:29.142Z,5.22
2022-11-03T19:44:56.205Z,5.13
2022-11-03T19:47:25.000Z,6.13
2022-11-03T19:49:53.665Z,5.25
2022-11-03T19:52:20.508Z,5.40
2022-11-03T19:54:48.340Z,4.57
2022-11-03T19:57:16.890Z,5.60
2022-11-03T19:59:43.942Z,5.43
2022-11-03T20:02:11.836Z,5.20
2022-11-03T20:04:39.467Z,5.32
2022-11-03T20:07:06.723Z,6.00
2022-11-03T20:09:33.571Z,5.95
2022-11-03T20:12:04.466Z,5.30
2022-11-03T20:14:31.536Z,5.95
2022-11-03T20:16:59.536Z,5.55
2022-11-03T20:19:26.653Z,5.75
2022-11-03T20:21:53.349Z,5.32
2022-11-03T20:24:20.094Z,6.05
2022-11-03T20:26:47.011Z,5.97
2022-11-03T20:29:14.689Z,5.15
2022-11-03T20:31:42.459Z,5.22
2022-11-03T20:34:15.297Z,5.95
2022-11-03T20:36:42.175Z,5.75
2022-11-03T20:39:13.464Z,6.38
2022-11-03T20:41:42.205Z,6.20
2022-11-03T20:44:09.348Z,6.35
2022-11-03T20:46:36.016Z,6.03
2022-11-03T20:49:02.840Z,6.55
2022-11-03T20:51:38.043Z,6.60
2022-11-03T20:54:12.368Z,6.05
2022-11-03T20:56:38.963Z,6.53
2022-11-03T20:59:05.625Z,6.68
2022-11-03T21:01:33.389Z,6.63
2022-11-03T21:04:00.797Z,6.47
2022-11-03T21:06:29.144Z,6.13
2022-11-03T21:08:56.162Z,6.03
2022-11-03T21:11:24.015Z,7.03
2022-11-03T21:13:55.650Z,6.53
2022-11-03T21:16:41.777Z,6.95
2022-11-03T21:19:38.791Z,6.88
2022-11-03T21:22:45.936Z,6.28
2022-11-03T21:25:14.122Z,6.88
2022-11-03T21:27:42.162Z,6.63
2022-11-03T21:30:14.189Z,6.88
2022-11-03T21:32:41.301Z,7.25
2022-11-03T21:35:09.877Z,7.40
2022-11-03T21:37:36.846Z,7.03
2022-11-03T21:40:03.488Z,7.65
2022-11-03T21:42:48.856Z,7.78
2022-11-03T21:48:02.491Z,6.88
2022-11-03T21:50:29.097Z,7.63
2022-11-03T21:52:55.771Z,7.05
2022-11-03T21:55:22.464Z,7.03
2022-11-03T21:57:49.095Z,6.95
2022-11-03T22:00:16.429Z,7.13
2022-11-03T22:02:43.217Z,7.05
2022-11-03T22:05:11.180Z,7.32
2022-11-03T22:07:37.861Z,7.63
2022-11-03T22:10:05.212Z,7.05
2022-11-03T22:12:31.795Z,7.43
2022-11-03T22:15:16.931Z,6.97
2022-11-03T22:17:46.742Z,7.55
2022-11-03T22:20:31.736Z,7.20
2022-11-03T22:23:20.045Z,7.32
2022-11-03T22:26:08.274Z,7.05
2022-11-03T22:28:34.967Z,6.85
2022-11-03T22:31:22.768Z,7.47
2022-11-03T22:34:08.035Z,7.38
2022-11-03T22:36:34.688Z,7.22
2022-11-03T22:39:19.777Z,7.68
2022-11-03T22:42:22.315Z,7.40
2022-11-03T22:45:07.505Z,7.05
2022-11-03T22:47:34.142Z,7.20
2022-11-03T22:50:00.714Z,6.72
2022-11-03T22:52:27.316Z,7.10
2022-11-03T22:54:53.962Z,7.00
2022-11-03T22:57:20.566Z,7.28
2022-11-03T22:59:47.585Z,7.75
2022-11-03T23:02:14.472Z,6.85
2022-11-03T23:04:41.253Z,7.72
2022-11-03T23:07:07.869Z,7.97
2022-11-03T23:09:34.506Z,7.75
2022-11-03T23:12:01.096Z,7.72
2022-11-03T23:14:47.711Z,8.32
2022-11-03T23:17:14.286Z,7.18
2022-11-03T23:19:59.618Z,8.48
2022-11-03T23:25:01.654Z,7.82
2022-11-03T23:27:28.620Z,7.43
2022-11-03T23:29:55.474Z,8.23
2022-11-03T23:32:22.073Z,7.85
2022-11-03T23:34:48.713Z,7.93
2022-11-03T23:37:15.349Z,8.20
2022-11-03T23:39:41.966Z,8.23
2022-11-03T23:42:08.663Z,8.02
2022-11-03T23:44:55.280Z,9.18
2022-11-03T23:47:40.353Z,7.75
2022-11-03T23:50:07.297Z,8.82
2022-11-03T23:52:34.035Z,8.38
2022-11-03T23:55:00.581Z,8.18
2022-11-03T23:57:45.747Z,9.02
